createdAt,value
2022-11-22T00:00:29.606Z,99155.63
2022-11-22T00:02:56.315Z,99165.13
2022-11-22T00:05:23.146Z,99152.56
2022-11-22T00:07:50.358Z,99155.78
2022-11-22T00:10:17.153Z,99167.50
2022-11-22T00:12:44.354Z,99157.31
2022-11-22T00:15:12.471Z,99162.75
2022-11-22T00:17:39.826Z,99150.03
2022-11-22T00:20:12.028Z,99154.28
2022-11-22T00:22:44.503Z,99155.97
2022-11-22T00:25:12.539Z,99150.53
2022-11-22T00:27:41.631Z,99161.56
2022-11-22T00:30:10.861Z,99156.31
2022-11-22T00:32:37.559Z,99155.47
2022-11-22T00:35:04.880Z,99153.41
2022-11-22T00:37:31.814Z,99149.19
2022-11-22T00:39:58.589Z,99154.97
2022-11-22T00:42:25.272Z,99163.94
2022-11-22T00:44:51.841Z,99164.28
2022-11-22T00:47:18.372Z,99166.31
2022-11-22T00:49:45.063Z,99157.84
2022-11-22T00:52:11.942Z,99149.53
2022-11-22T00:54:38.456Z,99150.38
2022-11-22T00:57:07.489Z,99161.22
2022-11-22T00:59:34.056Z,99167.16
2022-11-22T01:02:00.678Z,99152.91
2022-11-22T01:04:27.285Z,99159.19
2022-11-22T01:06:56.276Z,99153.25
2022-11-22T01:09:24.108Z,99147.16
2022-11-22T01:11:53.561Z,99155.47
2022-11-22T01:14:20.725Z,99141.19
2022-11-22T01:16:47.976Z,99136.66
2022-11-22T01:19:14.826Z,99133.75
2022-11-22T01:21:43.595Z,99149.00
2022-11-22T01:24:10.284Z,99149.66
2022-11-22T01:26:39.110Z,99151.69
2022-11-22T01:29:10.139Z,99158.13
2022-11-22T01:31:36.713Z,99157.44
2022-11-22T01:34:05.317Z,99141.84
2022-11-22T01:36:34.338Z,99141.50
2022-11-22T01:39:00.855Z,99162.03
2022-11-22T01:41:27.591Z,99154.56
2022-11-22T01:43:54.188Z,99155.25
2022-11-22T01:46:38.479Z,99148.63
2022-11-22T01:49:16.619Z,99137.13
2022-11-22T01:51:47.908Z,99166.06
2022-11-22T01:54:22.237Z,99154.22
2022-11-22T01:56:59.479Z,99148.59
2022-11-22T01:59:34.847Z,99165.06
2022-11-22T02:02:02.480Z,99181.81
2022-11-22T02:04:31.441Z,99180.47
2022-11-22T02:07:14.299Z,99191.78
2022-11-22T02:09:47.139Z,99182.13
2022-11-22T02:12:18.453Z,99180.94
2022-11-22T02:14:45.806Z,99180.75
2022-11-22T02:17:14.576Z,99175.97
2022-11-22T02:19:46.776Z,99197.34
2022-11-22T02:22:22.249Z,99194.47
2022-11-22T02:24:57.776Z,99178.38
2022-11-22T02:27:24.731Z,99200.22
2022-11-22T02:29:51.419Z,99182.06
2022-11-22T02:32:18.079Z,99194.44
2022-11-22T02:34:49.980Z,99199.31
2022-11-22T02:37:24.187Z,99187.47
2022-11-22T02:39:58.824Z,99203.91
2022-11-22T02:42:27.988Z,99197.66
2022-11-22T02:44:54.617Z,99200.50
2022-11-22T02:47:21.227Z,99203.38
2022-11-22T02:49:48.007Z,99201.84
2022-11-22T02:52:18.800Z,99199.28
2022-11-22T02:54:46.366Z,99204.03
2022-11-22T02:57:13.412Z,99211.16
2022-11-22T02:59:42.171Z,99201.13
2022-11-22T03:02:08.726Z,99214.88
2022-11-22T03:04:38.250Z,99224.16
2022-11-22T03:07:09.731Z,99211.81
2022-11-22T03:09:36.387Z,99210.56
2022-11-22T03:12:03.234Z,99208.69
2022-11-22T03:14:29.835Z,99210.00
2022-11-22T03:16:56.483Z,99223.22
2022-11-22T03:19:23.095Z,99220.84
2022-11-22T03:21:50.133Z,99219.78
2022-11-22T03:24:17.246Z,99219.53
2022-11-22T03:26:48.071Z,99231.97
2022-11-22T03:29:14.924Z,99249.41
2022-11-22T03:31:41.497Z,99235.28
2022-11-22T03:34:10.394Z,99239.03
2022-11-22T03:36:36.937Z,99240.03
2022-11-22T03:39:03.920Z,99247.78
2022-11-22T03:41:30.494Z,99240.44
2022-11-22T03:43:59.253Z,99234.81
2022-11-22T03:46:25.885Z,99240.91
2022-11-22T03:48:52.419Z,99231.22
2022-11-22T03:51:19.092Z,99246.78
2022-11-22T03:53:45.654Z,99237.78
2022-11-22T03:56:12.334Z,99229.06
2022-11-22T03:58:38.917Z,99241.25
2022-11-22T04:01:05.556Z,99258.59
2022-11-22T04:03:32.163Z,99233.09
2022-11-22T04:06:01.003Z,99256.66
2022-11-22T04:08:27.959Z,99251.03
2022-11-22T04:10:57.284Z,99251.47
2022-11-22T04:13:43.827Z,99264.69
2022-11-22T04:16:10.411Z,99261.06
2022-11-22T04:18:36.975Z,99253.03
2022-11-22T04:21:22.186Z,99275.91
2022-11-22T04:24:08.673Z,99277.19
2022-11-22T04:26:35.400Z,99288.34
2022-11-22T04:29:11.829Z,99272.03
2022-11-22T04:31:59.484Z,99285.38
2022-11-22T04:34:26.129Z,99275.38
2022-11-22T04:36:52.864Z,99267.72
2022-11-22T04:39:19.563Z,99275.22
2022-11-22T04:41:46.174Z,99280.94
2022-11-22T04:44:31.719Z,99278.38
2022-11-22T04:46:58.247Z,99274.09
2022-11-22T04:49:24.932Z,99282.38
2022-11-22T04:52:09.858Z,99287.94
2022-11-22T04:54:36.526Z,99282.44
2022-11-22T04:57:05.312Z,99287.53
2022-11-22T04:59:32.088Z,99273.94
2022-11-22T05:01:58.929Z,99287.31
2022-11-22T05:04:25.486Z,99293.53
2022-11-22T05:06:52.223Z,99278.56
2022-11-22T05:09:21.266Z,99293.84
2022-11-22T05:11:47.810Z,99301.25
2022-11-22T05:14:16.599Z,99290.06
2022-11-22T05:16:45.560Z,99296.91
2022-11-22T05:19:12.255Z,99300.47
2022-11-22T05:21:38.949Z,99289.41
2022-11-22T05:24:05.918Z,99290.72
2022-11-22T05:26:35.202Z,99303.63
2022-11-22T05:29:10.621Z,99300.22
2022-11-22T05:31:39.701Z,99302.19
2022-11-22T05:34:08.753Z,99292.56
2022-11-22T05:36:35.724Z,99281.72
2022-11-22T05:39:02.895Z,99291.44
2022-11-22T05:41:29.463Z,99295.16
2022-11-22T05:43:58.806Z,99300.56
2022-11-22T05:46:30.344Z,99297.13
2022-11-22T05:48:58.455Z,99297.88
2022-11-22T05:51:33.925Z,99296.16
2022-11-22T05:54:03.719Z,99280.97
2022-11-22T05:56:30.362Z,99301.84
2022-11-22T05:58:57.081Z,99292.91
2022-11-22T06:01:24.991Z,99293.19
2022-11-22T06:03:54.405Z,99285.41
2022-11-22T06:06:21.033Z,99292.66
2022-11-22T06:08:49.174Z,99292.94
2022-11-22T06:11:24.113Z,99296.50
2022-11-22T06:13:56.472Z,99292.84
2022-11-22T06:16:23.438Z,99276.25
2022-11-22T06:18:50.583Z,99306.06
2022-11-22T06:21:25.227Z,99288.72
2022-11-22T06:23:55.401Z,99285.47
2022-11-22T06:26:26.022Z,99283.06
2022-11-22T06:28:54.186Z,99303.94
2022-11-22T06:31:25.523Z,99299.53
2022-11-22T06:33:54.519Z,99307.72
2022-11-22T06:36:27.341Z,99314.66
2022-11-22T06:38:53.835Z,99296.88
2022-11-22T06:41:33.900Z,99303.56
2022-11-22T06:44:07.858Z,99318.25
2022-11-22T06:46:37.548Z,99331.72
2022-11-22T06:49:11.202Z,99306.88
2022-11-22T06:51:40.008Z,99316.09
2022-11-22T06:54:11.352Z,99320.72
2022-11-22T06:56:41.587Z,99321.09
2022-11-22T06:59:11.445Z,99324.09
2022-11-22T07:01:38.764Z,99303.50
2022-11-22T07:04:06.252Z,99321.63
2022-11-22T07:06:35.834Z,99332.44
2022-11-22T07:09:07.509Z,99340.94
2022-11-22T07:11:35.105Z,99343.34
2022-11-22T07:14:10.787Z,99324.56
2022-11-22T07:16:38.898Z,99331.06
2022-11-22T07:19:08.027Z,99331.06
2022-11-22T07:21:36.635Z,99331.44
2022-11-22T07:24:04.632Z,99334.00
2022-11-22T07:26:31.239Z,99338.94
2022-11-22T07:28:57.779Z,99326.59
2022-11-22T07:31:24.556Z,99332.53
2022-11-22T07:33:51.128Z,99348.16
2022-11-22T07:36:20.622Z,99334.63
2022-11-22T07:38:48.582Z,99341.44
2022-11-22T07:41:16.552Z,99335.47
2022-11-22T07:43:43.601Z,99341.28
2022-11-22T07:46:24.828Z,99314.91
2022-11-22T07:48:53.931Z,99343.81
2022-11-22T07:51:25.214Z,99332.69
2022-11-22T07:53:51.888Z,99339.19
2022-11-22T07:56:18.459Z,99349.69
2022-11-22T07:58:45.065Z,99345.69
2022-11-22T08:01:18.678Z,99344.53
2022-11-22T08:03:45.802Z,99337.44
2022-11-22T08:06:13.816Z,99345.75
2022-11-22T08:11:39.228Z,99294.53
2022-11-22T08:14:05.788Z,99338.56
2022-11-22T08:16:32.331Z,99341.81
2022-11-22T08:19:03.719Z,99346.06
2022-11-22T08:21:30.438Z,99345.91
2022-11-22T08:24:00.188Z,99339.50
2022-11-22T08:26:27.347Z,99348.69
2022-11-22T08:28:56.420Z,99352.28
2022-11-22T08:31:22.927Z,99354.66
2022-11-22T08:33:53.287Z,99330.22
2022-11-22T08:36:24.685Z,99346.78
2022-11-22T08:38:51.199Z,99348.56
2022-11-22T08:41:17.758Z,99350.97
2022-11-22T08:43:44.708Z,99357.09
2022-11-22T08:46:11.760Z,99357.09
2022-11-22T08:48:40.872Z,99364.19
2022-11-22T08:51:09.559Z,99348.03
2022-11-22T08:53:41.707Z,99361.31
2022-11-22T08:56:12.945Z,99353.56
2022-11-22T08:58:40.170Z,99360.13
2022-11-22T09:01:13.747Z,99356.31
2022-11-22T09:03:41.662Z,99356.75
2022-11-22T09:09:22.161Z,99346.44
2022-11-22T09:11:44.585Z,99372.41
2022-11-22T09:14:11.156Z,99371.22
2022-11-22T09:16:37.713Z,99372.38
2022-11-22T09:19:04.268Z,99383.56
2022-11-22T09:21:30.836Z,99365.03
2022-11-22T09:23:59.628Z,99374.03
2022-11-22T09:26:26.307Z,99358.41
2022-11-22T09:28:56.663Z,99379.47
2022-11-22T09:31:26.498Z,99380.34
2022-11-22T09:33:53.112Z,99383.25
2022-11-22T09:36:22.332Z,99365.94
2022-11-22T09:38:49.262Z,99372.38
2022-11-22T09:41:15.731Z,99386.13
2022-11-22T09:44:00.745Z,99376.31
2022-11-22T09:46:42.367Z,99377.03
2022-11-22T09:49:29.685Z,99385.31
2022-11-22T09:52:02.231Z,99376.31
2022-11-22T09:54:37.994Z,99346.63
2022-11-22T09:57:09.069Z,99365.81
2022-11-22T09:59:41.613Z,99362.59
2022-11-22T10:02:18.992Z,99371.78
2022-11-22T10:04:56.056Z,99382.47
2022-11-22T10:07:35.432Z,99381.09
2022-11-22T10:10:14.672Z,99394.69
2022-11-22T10:12:52.894Z,99381.25
2022-11-22T10:15:44.370Z,99388.41
2022-11-22T10:18:26.316Z,99389.59
2022-11-22T10:20:53.386Z,99373.88
2022-11-22T10:23:25.945Z,99385.78
2022-11-22T10:26:07.596Z,99377.13
2022-11-22T10:29:14.125Z,99372.03
2022-11-22T10:31:50.152Z,99367.44
2022-11-22T10:34:30.672Z,99372.38
2022-11-22T10:37:05.345Z,99370.16
2022-11-22T10:39:48.597Z,99361.84
2022-11-22T10:42:33.911Z,99363.72
2022-11-22T10:45:06.388Z,99356.59
2022-11-22T10:48:02.996Z,99356.25
2022-11-22T10:50:49.917Z,99363.75
2022-11-22T10:53:28.453Z,99357.31
2022-11-22T10:56:23.140Z,99350.84
2022-11-22T10:59:08.435Z,99357.31
2022-11-22T11:01:59.597Z,99329.50
2022-11-22T11:04:35.453Z,99333.88
2022-11-22T11:07:12.076Z,99335.41
2022-11-22T11:10:10.331Z,99339.16
2022-11-22T11:12:46.987Z,99340.16
2022-11-22T11:15:24.766Z,99325.03
2022-11-22T11:18:00.666Z,99333.19
2022-11-22T11:20:38.757Z,99331.66
2022-11-22T11:23:20.712Z,99313.00
2022-11-22T11:25:48.877Z,99330.13
2022-11-22T11:28:23.739Z,99321.97
2022-11-22T11:31:09.744Z,99314.84
2022-11-22T11:33:39.111Z,99326.56
2022-11-22T11:36:24.618Z,99300.25
2022-11-22T11:38:55.662Z,99322.34
2022-11-22T11:41:26.044Z,99325.22
2022-11-22T11:44:01.463Z,99326.22
2022-11-22T11:46:30.321Z,99319.59
2022-11-22T11:49:18.838Z,99319.44
2022-11-22T11:51:47.384Z,99320.81
2022-11-22T11:54:22.766Z,99327.75
2022-11-22T11:56:58.053Z,99323.34
2022-11-22T11:59:39.312Z,99320.63
2022-11-22T12:02:21.198Z,99320.81
2022-11-22T12:04:50.723Z,99322.00
2022-11-22T12:07:24.433Z,99308.91
2022-11-22T12:09:56.328Z,99317.59
2022-11-22T12:12:51.124Z,99322.00
2022-11-22T12:15:53.514Z,99327.44
2022-11-22T12:18:36.450Z,99324.72
2022-11-22T12:21:25.057Z,99321.16
2022-11-22T12:27:05.644Z,99319.09
2022-11-22T12:29:49.467Z,99318.25
2022-11-22T12:32:23.990Z,99317.91
2022-11-22T12:34:53.960Z,99316.53
2022-11-22T12:37:34.150Z,99319.63
2022-11-22T12:40:05.638Z,99318.41
2022-11-22T12:42:39.589Z,99302.13
2022-11-22T12:45:13.549Z,99307.34
2022-11-22T12:47:44.697Z,99320.47
2022-11-22T12:48:23.891Z,99323.69
2022-11-22T12:50:14.165Z,99309.41
2022-11-22T12:52:59.185Z,99311.31
2022-11-22T12:55:30.532Z,99300.22
2022-11-22T12:58:10.916Z,99297.72
2022-11-22T13:00:48.044Z,99297.84
2022-11-22T13:03:30.325Z,99293.94
2022-11-22T13:05:59.344Z,99297.00
2022-11-22T13:08:38.487Z,99292.41
2022-11-22T13:11:09.363Z,99274.91
2022-11-22T13:14:02.709Z,99287.84
2022-11-22T13:16:29.542Z,99291.91
2022-11-22T13:19:00.636Z,99290.53
2022-11-22T13:21:49.995Z,99287.66
2022-11-22T13:24:54.753Z,99280.50
2022-11-22T13:27:44.416Z,99274.22
2022-11-22T13:30:22.101Z,99293.75
2022-11-22T13:32:57.987Z,99287.47
2022-11-22T13:35:33.985Z,99295.28
2022-11-22T13:38:04.434Z,99292.56
2022-11-22T13:40:35.171Z,99291.91
2022-11-22T13:43:21.212Z,99291.38
2022-11-22T13:45:51.579Z,99301.91
2022-11-22T13:48:40.038Z,99302.06
2022-11-22T13:51:09.560Z,99295.59
2022-11-22T13:53:44.045Z,99277.09
2022-11-22T13:56:16.566Z,99294.03
2022-11-22T13:58:50.776Z,99293.03
2022-11-22T14:01:36.040Z,99306.94
2022-11-22T14:04:19.697Z,99302.53
2022-11-22T14:06:56.853Z,99312.91
2022-11-22T14:09:56.586Z,99308.50
2022-11-22T14:12:37.632Z,99305.13
2022-11-22T14:15:19.519Z,99300.38
2022-11-22T14:18:13.026Z,99290.69
2022-11-22T14:21:02.489Z,99292.75
2022-11-22T14:23:47.308Z,99296.66
2022-11-22T14:26:21.670Z,99295.97
2022-11-22T14:28:57.982Z,99289.00
2022-11-22T14:31:28.878Z,99270.00
2022-11-22T14:34:14.328Z,99283.56
2022-11-22T14:36:41.339Z,99276.81
2022-11-22T14:39:53.360Z,99283.91
2022-11-22T14:42:35.756Z,99283.91
2022-11-22T14:45:11.382Z,99288.69
2022-11-22T14:47:52.413Z,99282.06
2022-11-22T14:50:24.682Z,99285.63
2022-11-22T14:52:52.893Z,99299.22
2022-11-22T14:55:30.893Z,99305.66
2022-11-22T14:58:23.565Z,99296.00
2022-11-22T15:01:14.929Z,99307.22
2022-11-22T15:09:14.158Z,99315.34
2022-11-22T15:09:23.879Z,99311.81
2022-11-22T15:09:56.421Z,99304.66
2022-11-22T15:12:58.359Z,99311.97
2022-11-22T15:59:31.267Z,99333.38
2022-11-22T16:02:01.696Z,99334.41
2022-11-22T16:04:36.353Z,99330.81
2022-11-22T16:07:06.798Z,99307.75
2022-11-22T16:09:38.317Z,99311.16
2022-11-22T16:12:25.349Z,99323.88
2022-11-22T16:14:52.946Z,99324.88
2022-11-22T16:17:25.308Z,99330.16
2022-11-22T16:19:53.302Z,99329.16
2022-11-22T16:22:31.091Z,99320.84
2022-11-22T16:25:31.211Z,99331.19
2022-11-22T16:27:58.005Z,99340.00
2022-11-22T16:30:24.544Z,99336.47
2022-11-22T16:32:53.843Z,99338.97
2022-11-22T16:35:29.515Z,99331.19
2022-11-22T16:37:56.511Z,99333.03
2022-11-22T16:40:23.106Z,99336.47
2022-11-22T16:42:49.694Z,99340.34
2022-11-22T16:45:19.816Z,99345.28
2022-11-22T16:47:54.612Z,99347.81
2022-11-22T16:50:33.058Z,99340.69
2022-11-22T16:53:02.978Z,99342.38
2022-11-22T16:55:29.650Z,99354.09
2022-11-22T16:57:56.482Z,99334.91
2022-11-22T17:01:15.873Z,99346.94
2022-11-22T17:03:44.353Z,99345.94
2022-11-22T17:06:21.004Z,99333.38
2022-11-22T17:08:49.728Z,99346.44
2022-11-22T17:11:19.508Z,99338.31
2022-11-22T17:13:46.400Z,99331.88
2022-11-22T17:16:17.740Z,99348.84
2022-11-22T17:18:45.869Z,99349.50
2022-11-22T17:21:29.394Z,99355.97
2022-11-22T17:24:12.182Z,99363.59
2022-11-22T17:26:38.736Z,99362.25
2022-11-22T17:29:06.617Z,99350.88
2022-11-22T17:31:35.790Z,99355.28
2022-11-22T17:34:02.359Z,99354.94
2022-11-22T17:36:31.622Z,99375.00
2022-11-22T17:39:00.286Z,99371.94
2022-11-22T17:41:27.649Z,99375.50
2022-11-22T17:43:56.619Z,99375.31
2022-11-22T17:46:23.519Z,99379.06
2022-11-22T17:48:51.670Z,99379.91
2022-11-22T17:51:18.275Z,99370.72
2022-11-22T17:53:44.916Z,99373.28
2022-11-22T17:56:11.829Z,99376.66
2022-11-22T17:58:41.055Z,99382.81
2022-11-22T18:01:08.888Z,99373.28
2022-11-22T18:03:38.562Z,99373.78
2022-11-22T18:06:05.709Z,99350.88
2022-11-22T18:08:32.790Z,99376.00
2022-11-22T18:11:01.279Z,99380.41
2022-11-22T18:13:31.276Z,99374.13
2022-11-22T18:16:03.154Z,99374.66
2022-11-22T18:21:21.239Z,99375.31
2022-11-22T18:23:48.044Z,99388.41
2022-11-22T18:29:38.585Z,99394.34
2022-11-22T18:31:52.231Z,99395.34
2022-11-22T18:34:20.360Z,99394.66
2022-11-22T18:36:55.461Z,99395.69
2022-11-22T18:39:26.858Z,99395.69
2022-11-22T18:41:55.642Z,99383.63
2022-11-22T18:44:22.171Z,99404.19
2022-11-22T18:46:50.873Z,99398.94
2022-11-22T18:49:17.455Z,99392.78
2022-11-22T18:51:44.170Z,99387.19
2022-11-22T18:54:10.780Z,99390.63
2022-11-22T18:56:40.659Z,99385.19
2022-11-22T18:59:10.511Z,99399.59
2022-11-22T19:01:37.365Z,99401.47
2022-11-22T19:04:09.288Z,99390.41
2022-11-22T19:06:38.355Z,99378.88
2022-11-22T19:09:04.948Z,99396.72
2022-11-22T19:11:34.375Z,99399.09
2022-11-22T19:14:01.710Z,99404.19
2022-11-22T19:16:30.249Z,99397.72
2022-11-22T19:18:58.482Z,99409.25
2022-11-22T19:21:26.974Z,99414.19
2022-11-22T19:23:54.153Z,99415.91
2022-11-22T19:26:23.239Z,99411.47
2022-11-22T19:28:55.928Z,99406.03
2022-11-22T19:31:27.690Z,99396.03
2022-11-22T19:33:58.244Z,99412.34
2022-11-22T19:36:32.771Z,99410.28
2022-11-22T19:39:00.632Z,99414.91
2022-11-22T19:41:27.337Z,99416.41
2022-11-22T19:43:56.278Z,99412.69
2022-11-22T19:46:23.410Z,99394.16
2022-11-22T19:48:53.872Z,99417.25
2022-11-22T19:51:22.237Z,99408.25
2022-11-22T19:53:53.386Z,99391.13
2022-11-22T19:56:21.120Z,99403.66
2022-11-22T19:58:53.615Z,99417.06
2022-11-22T20:01:21.880Z,99400.78
2022-11-22T20:03:53.501Z,99399.75
2022-11-22T20:06:20.935Z,99422.34
2022-11-22T20:08:47.616Z,99421.50
2022-11-22T20:11:16.741Z,99382.81
2022-11-22T20:13:46.457Z,99413.34
2022-11-22T20:16:26.899Z,99410.97
2022-11-22T20:19:09.602Z,99416.06
2022-11-22T20:21:37.522Z,99422.03
2022-11-22T20:24:05.503Z,99403.66
2022-11-22T20:26:33.059Z,99408.63
2022-11-22T20:29:04.960Z,99431.72
2022-11-22T20:31:32.867Z,99430.69
2022-11-22T20:34:00.498Z,99412.84
2022-11-22T20:36:31.183Z,99422.03
2022-11-22T20:39:09.852Z,99426.97
2022-11-22T20:41:38.560Z,99427.63
2022-11-22T20:44:05.724Z,99433.94
2022-11-22T20:46:36.775Z,99434.78
2022-11-22T20:49:03.391Z,99434.59
2022-11-22T20:51:32.258Z,99438.16
2022-11-22T20:54:01.088Z,99426.63
2022-11-22T20:56:27.694Z,99424.41
2022-11-22T20:58:54.467Z,99430.00
2022-11-22T21:01:26.635Z,99432.38
2022-11-22T21:03:57.061Z,99437.81
2022-11-22T21:06:26.785Z,99437.81
2022-11-22T21:08:54.289Z,99434.94
2022-11-22T21:11:27.725Z,99437.16
2022-11-22T21:13:55.689Z,99447.03
2022-11-22T21:16:24.998Z,99450.41
2022-11-22T21:18:53.995Z,99456.69
2022-11-22T21:21:24.922Z,99450.22
2022-11-22T21:23:56.344Z,99449.19
2022-11-22T21:26:24.293Z,99458.56
2022-11-22T21:28:52.306Z,99439.88
2022-11-22T21:31:20.243Z,99449.56
2022-11-22T21:33:47.884Z,99447.34
2022-11-22T21:36:14.873Z,99472.66
2022-11-22T21:38:43.807Z,99459.91
2022-11-22T21:44:09.284Z,99462.97
2022-11-22T21:46:35.953Z,99475.38
2022-11-22T21:49:02.523Z,99467.38
2022-11-22T21:51:32.243Z,99473.50
2022-11-22T21:53:59.891Z,99481.47
2022-11-22T21:56:27.208Z,99477.25
2022-11-22T21:58:54.379Z,99477.25
2022-11-22T22:01:21.204Z,99479.47
2022-11-22T22:03:47.747Z,99490.50
2022-11-22T22:06:14.419Z,99488.63
2022-11-22T22:08:41.255Z,99486.91
2022-11-22T22:11:08.374Z,99485.75
2022-11-22T22:13:35.150Z,99489.13
2022-11-22T22:16:04.185Z,99481.31
2022-11-22T22:18:38.080Z,99488.13
2022-11-22T22:21:07.263Z,99493.56
2022-11-22T22:23:35.459Z,99496.09
2022-11-22T22:26:03.926Z,99478.94
2022-11-22T22:28:33.157Z,99492.88
2022-11-22T22:31:10.249Z,99498.66
2022-11-22T22:33:38.623Z,99461.97
2022-11-22T22:36:06.658Z,99504.75
2022-11-22T22:38:34.387Z,99505.59
2022-11-22T22:41:03.692Z,99494.91
2022-11-22T22:43:35.420Z,99503.75
2022-11-22T22:46:24.771Z,99493.88
2022-11-22T22:48:52.195Z,99490.50
2022-11-22T22:51:26.246Z,99495.06
2022-11-22T22:53:57.956Z,99509.53
2022-11-22T22:56:28.195Z,99506.13
2022-11-22T22:58:55.818Z,99506.47
2022-11-22T23:01:26.860Z,99490.84
2022-11-22T23:03:58.804Z,99518.53
2022-11-22T23:06:27.559Z,99520.22
2022-11-22T23:08:57.250Z,99531.94
2022-11-22T23:11:45.640Z,99524.97
2022-11-22T23:14:14.623Z,99529.41
2022-11-22T23:16:41.213Z,99519.38
2022-11-22T23:19:08.078Z,99511.91
2022-11-22T23:21:35.295Z,99536.56
2022-11-22T23:24:02.750Z,99539.59
2022-11-22T23:26:29.432Z,99548.94
2022-11-22T23:28:56.037Z,99547.75
2022-11-22T23:31:22.632Z,99554.22
2022-11-22T23:33:49.207Z,99549.63
2022-11-22T23:36:18.208Z,99550.47
2022-11-22T23:38:45.411Z,99544.22
2022-11-22T23:41:13.999Z,99556.09
2022-11-22T23:43:41.645Z,99557.81
2022-11-22T23:46:16.769Z,99538.41
2022-11-22T23:48:55.714Z,99549.66
2022-11-22T23:51:23.566Z,99570.53
2022-11-22T23:53:55.053Z,99569.03
2022-11-22T23:56:22.236Z,99574.13
2022-11-22T23:58:49.385Z,99577.34
